Overview Statistics Trail Chart Weather Telemetry Raw packets
 

This is the latest recevied weather packets stored in our database for station/object K6POO-1. If no packets are shown the sender has not sent any weather packets the latest 10 day(s).

<< 5 6 7 8 9 10 11 >>
Time Temp. Humidity Pressure Rain* Wind** Luminosity Snow
1788649680 19.44° C 70% 1015.1 hPa 0 mm - 476 W/m² -
1788649377 20° C 69% 1014.7 hPa 0 mm - 496 W/m² -
1788649078 20° C 65% 1014.9 hPa 0 mm - 510 W/m² -
1788648772 20.56° C 61% 1014.8 hPa 0 mm - 522 W/m² -
1788648471 20.56° C 60% 1014.9 hPa 0 mm - 537 W/m² -
1788648167 20.56° C 59% 1014.9 hPa 0 mm - 555 W/m² -
1788647863 21.67° C 54% 1014.8 hPa 0 mm - 579 W/m² -
1788647560 21.11° C 54% 1014.8 hPa 0 mm - 598 W/m² -
1788647255 20.56° C 54% 1014.7 hPa 0 mm - 616 W/m² -
1788646954 20.56° C 54% 1014.5 hPa 0 mm - 632 W/m² -
1788646650 20.56° C 58% 1014.9 hPa 0 mm - 642 W/m² -
1788646347 20° C 59% 1014.8 hPa 0 mm - 657 W/m² -
1788646043 20° C 56% 1014.8 hPa 0 mm - 679 W/m² -
1788645738 20° C 59% 1014.9 hPa 0 mm - 694 W/m² -
1788645438 20° C 58% 1014.9 hPa 0 mm - 714 W/m² -
1788645134 19.44° C 62% 1014.8 hPa 0 mm - 731 W/m² -
1788644829 19.44° C 62% 1015 hPa 0 mm - 744 W/m² -
1788644524 20° C 63% 1015 hPa 0 mm - 758 W/m² -
1788644220 20.56° C 61% 1014.7 hPa 0 mm - 768 W/m² -
1788643915 20.56° C 58% 1014.9 hPa 0 mm - 779 W/m² -
1788643610 21.11° C 54% 1014.8 hPa 0 mm - 790 W/m² -
1788643310 21.67° C 49% 1014.7 hPa 0 mm - 801 W/m² -
1788643004 21.67° C 47% 1014.9 hPa 0 mm - 812 W/m² -
1788642701 21.67° C 48% 1014.9 hPa 0 mm - 819 W/m² -
1788642397 21.67° C 47% 1014.9 hPa 0 mm - 830 W/m² -

* Rain latest hour (hover to see other rain measurements)
** Current wind speed in m/s (hover to see current wind gust speed)